createdAt,value
2018-09-12T00:00:42.588Z,99.90
2018-09-12T00:03:10.928Z,99.90
2018-09-12T00:05:39.320Z,99.90
2018-09-12T00:08:07.726Z,99.90
2018-09-12T00:10:36.127Z,99.90
2018-09-12T00:13:04.481Z,99.90
2018-09-12T00:15:32.817Z,99.90
2018-09-12T00:18:01.139Z,99.90
2018-09-12T00:20:29.488Z,99.90
2018-09-12T00:22:57.845Z,99.90
2018-09-12T00:25:26.200Z,99.90
2018-09-12T00:27:54.571Z,99.90
2018-09-12T00:30:22.907Z,99.90
2018-09-12T00:32:51.262Z,99.90
2018-09-12T00:35:19.641Z,99.90
2018-09-12T00:37:48.004Z,99.90
2018-09-12T00:40:16.334Z,99.90
2018-09-12T00:42:44.773Z,99.90
2018-09-12T00:45:13.163Z,99.90
2018-09-12T00:47:41.532Z,99.90
2018-09-12T00:50:09.908Z,99.90
2018-09-12T00:52:38.293Z,99.90
2018-09-12T00:55:06.708Z,99.90
2018-09-12T00:57:35.048Z,99.90
2018-09-12T01:00:03.431Z,99.90
2018-09-12T01:02:31.778Z,99.90
2018-09-12T01:05:00.187Z,99.90
2018-09-12T01:07:28.538Z,99.90
2018-09-12T01:09:57.047Z,99.90
2018-09-12T01:12:25.396Z,99.90
2018-09-12T01:14:53.788Z,99.90
2018-09-12T01:17:22.168Z,99.90
2018-09-12T01:19:50.504Z,99.90
2018-09-12T01:22:18.839Z,99.90
2018-09-12T01:24:47.217Z,99.90
2018-09-12T01:27:15.616Z,99.90
2018-09-12T01:29:43.952Z,99.90
2018-09-12T01:32:12.341Z,99.90
2018-09-12T01:34:40.715Z,99.90
2018-09-12T01:37:09.076Z,99.90
2018-09-12T01:39:37.392Z,99.90
2018-09-12T01:42:05.768Z,99.90
2018-09-12T01:44:34.125Z,99.90
2018-09-12T01:47:02.492Z,99.90
2018-09-12T01:49:30.854Z,99.90
2018-09-12T01:51:59.237Z,99.90
2018-09-12T01:54:27.581Z,99.90
2018-09-12T01:56:55.927Z,99.90
2018-09-12T01:59:24.284Z,99.90
2018-09-12T02:01:52.589Z,99.90
2018-09-12T02:04:20.927Z,99.90
2018-09-12T02:06:49.320Z,99.90
2018-09-12T02:09:17.643Z,99.90
2018-09-12T02:11:45.987Z,99.90
2018-09-12T02:14:14.430Z,99.90
2018-09-12T02:16:42.812Z,99.90
2018-09-12T02:19:11.180Z,99.90
2018-09-12T02:21:39.568Z,99.90
2018-09-12T02:24:07.878Z,99.90
2018-09-12T02:26:36.253Z,99.90
2018-09-12T02:29:04.756Z,99.90
2018-09-12T02:31:33.124Z,99.90
2018-09-12T02:34:01.500Z,99.90
2018-09-12T02:36:30.242Z,99.90
2018-09-12T02:38:59.760Z,99.90
2018-09-12T02:41:28.125Z,99.90
2018-09-12T02:43:56.489Z,99.90
2018-09-12T02:46:24.876Z,99.90
2018-09-12T02:48:53.448Z,99.90
2018-09-12T02:51:21.831Z,99.90
2018-09-12T02:53:50.223Z,99.90
2018-09-12T02:56:19.026Z,99.90
2018-09-12T02:58:47.571Z,99.90
2018-09-12T03:01:15.964Z,99.90
2018-09-12T03:03:44.286Z,99.90
2018-09-12T03:06:12.667Z,99.90
2018-09-12T03:08:41.092Z,99.90
2018-09-12T03:11:09.472Z,99.90
2018-09-12T03:13:37.795Z,99.90
2018-09-12T03:16:06.166Z,99.90
2018-09-12T03:18:34.575Z,99.90
2018-09-12T03:21:03.104Z,99.90
2018-09-12T03:23:31.293Z,99.90
2018-09-12T03:25:59.597Z,99.90
2018-09-12T03:28:27.945Z,99.90
2018-09-12T03:30:56.276Z,99.90
2018-09-12T03:33:24.639Z,99.90
2018-09-12T03:35:52.952Z,99.90
2018-09-12T03:38:21.383Z,99.90
2018-09-12T03:40:49.728Z,99.90
2018-09-12T03:43:18.125Z,99.90
2018-09-12T03:45:46.476Z,99.90
2018-09-12T03:48:14.792Z,99.90
2018-09-12T03:50:43.189Z,99.90
2018-09-12T03:53:11.570Z,99.90
2018-09-12T03:55:39.980Z,99.90
2018-09-12T03:58:08.315Z,99.90
2018-09-12T04:00:36.653Z,99.90
2018-09-12T04:03:05.075Z,99.90
2018-09-12T04:05:33.517Z,99.90
2018-09-12T04:08:01.879Z,99.90
2018-09-12T04:10:30.204Z,99.90
2018-09-12T04:12:58.621Z,99.90
2018-09-12T04:15:26.972Z,99.90
2018-09-12T04:17:55.340Z,99.90
2018-09-12T04:20:23.723Z,99.90
2018-09-12T04:22:52.089Z,99.90
2018-09-12T04:25:20.499Z,99.90
2018-09-12T04:27:48.868Z,99.90
2018-09-12T04:30:17.233Z,99.90
2018-09-12T04:32:45.568Z,99.90
2018-09-12T04:35:13.912Z,99.90
2018-09-12T04:37:42.283Z,99.90
2018-09-12T04:40:10.650Z,99.90
2018-09-12T04:42:39.039Z,99.90
2018-09-12T04:45:07.344Z,99.90
2018-09-12T04:47:35.713Z,99.90
2018-09-12T04:50:04.550Z,99.90
2018-09-12T04:52:32.884Z,99.90
2018-09-12T04:55:01.249Z,99.90
2018-09-12T04:57:29.671Z,99.90
2018-09-12T04:59:58.001Z,99.90
2018-09-12T05:02:26.371Z,99.90
2018-09-12T05:04:54.676Z,99.90
2018-09-12T05:07:23.059Z,99.90
2018-09-12T05:09:51.406Z,99.90
2018-09-12T05:12:19.789Z,99.90
2018-09-12T05:14:48.161Z,99.90
2018-09-12T05:17:16.554Z,99.90
2018-09-12T05:19:44.890Z,99.90
2018-09-12T05:22:13.254Z,99.90
2018-09-12T05:24:41.663Z,99.90
2018-09-12T05:27:10.037Z,99.90
2018-09-12T05:29:38.400Z,99.90
2018-09-12T05:32:06.721Z,99.90
2018-09-12T05:34:35.082Z,99.90
2018-09-12T05:37:03.529Z,99.90
2018-09-12T05:39:31.942Z,99.90
2018-09-12T05:42:00.266Z,99.90
2018-09-12T05:44:28.613Z,99.90
2018-09-12T05:46:56.972Z,99.90
2018-09-12T05:49:25.356Z,99.90
2018-09-12T05:51:53.691Z,99.90
2018-09-12T05:54:22.300Z,99.90
2018-09-12T05:56:50.701Z,99.90
2018-09-12T05:59:19.197Z,99.90
2018-09-12T06:01:47.540Z,99.90
2018-09-12T06:04:15.869Z,99.90
2018-09-12T06:06:44.254Z,99.90
2018-09-12T06:09:12.592Z,99.90
2018-09-12T06:11:40.939Z,99.90
2018-09-12T06:14:09.390Z,99.90
2018-09-12T06:16:37.667Z,99.90
2018-09-12T06:19:06.055Z,99.90
2018-09-12T06:21:34.610Z,99.90
2018-09-12T06:24:02.973Z,99.90
2018-09-12T06:26:31.352Z,99.90
2018-09-12T06:28:59.700Z,99.90
2018-09-12T06:31:28.075Z,99.90
2018-09-12T06:33:56.544Z,99.90
2018-09-12T06:36:24.937Z,99.90
2018-09-12T06:38:53.260Z,99.90
2018-09-12T06:41:21.627Z,99.90
2018-09-12T06:43:50.269Z,99.90
2018-09-12T06:46:18.694Z,99.90
2018-09-12T06:48:47.032Z,99.90
2018-09-12T06:51:15.369Z,99.90
2018-09-12T06:53:43.741Z,99.90
2018-09-12T06:56:12.433Z,99.90
2018-09-12T06:58:40.737Z,99.90
2018-09-12T07:01:09.791Z,99.90
2018-09-12T07:03:38.116Z,99.90
2018-09-12T07:06:06.497Z,99.90
2018-09-12T07:08:34.869Z,99.90
2018-09-12T07:11:03.280Z,99.90
2018-09-12T07:13:31.667Z,99.90
2018-09-12T07:16:00.010Z,99.90
2018-09-12T07:18:28.472Z,99.90
2018-09-12T07:20:56.886Z,99.90
2018-09-12T07:23:25.223Z,99.90
2018-09-12T07:25:53.590Z,99.90
2018-09-12T07:28:21.925Z,99.90
2018-09-12T07:30:50.398Z,99.90
2018-09-12T07:33:18.731Z,99.90
2018-09-12T07:35:47.124Z,99.90
2018-09-12T07:38:15.460Z,99.90
2018-09-12T07:40:43.846Z,99.90
2018-09-12T07:43:12.229Z,99.90
2018-09-12T07:45:40.581Z,99.90
2018-09-12T07:48:08.895Z,99.90
2018-09-12T07:50:37.313Z,99.90
2018-09-12T07:53:05.733Z,99.90
2018-09-12T07:55:34.117Z,99.90
2018-09-12T07:58:02.524Z,99.90
2018-09-12T08:00:30.952Z,99.90
2018-09-12T08:02:59.239Z,99.90
2018-09-12T08:05:27.626Z,99.90
2018-09-12T08:07:55.980Z,99.90
2018-09-12T08:10:24.376Z,99.90
2018-09-12T08:12:52.732Z,99.90
2018-09-12T08:15:21.100Z,99.90
2018-09-12T08:17:49.509Z,99.90
2018-09-12T08:20:17.931Z,99.90
2018-09-12T08:22:46.330Z,99.90
2018-09-12T08:25:14.727Z,99.90
2018-09-12T08:27:43.144Z,99.90
2018-09-12T08:30:11.585Z,99.90
2018-09-12T08:32:39.969Z,99.90
2018-09-12T08:35:08.381Z,99.90
2018-09-12T08:37:36.840Z,99.90
2018-09-12T08:40:05.281Z,99.90
2018-09-12T08:42:33.668Z,99.90
2018-09-12T08:45:01.971Z,99.90
2018-09-12T08:47:30.350Z,99.90
2018-09-12T08:49:58.692Z,99.90
2018-09-12T08:52:27.100Z,99.90
2018-09-12T08:54:55.456Z,99.90
2018-09-12T08:57:23.788Z,99.90
2018-09-12T08:59:52.148Z,99.90
2018-09-12T09:02:20.501Z,99.90
2018-09-12T09:04:48.825Z,99.90
2018-09-12T09:07:17.179Z,99.90
2018-09-12T09:09:45.512Z,99.90
2018-09-12T09:12:13.892Z,99.90
2018-09-12T09:14:42.274Z,99.90
2018-09-12T09:17:10.702Z,99.90
2018-09-12T09:19:39.050Z,99.90
2018-09-12T09:22:07.395Z,99.90
2018-09-12T09:24:35.772Z,99.90
2018-09-12T09:27:04.155Z,99.90
2018-09-12T09:29:32.593Z,99.90
2018-09-12T09:32:00.891Z,99.90
2018-09-12T09:34:29.282Z,99.90
2018-09-12T09:36:57.603Z,99.90
2018-09-12T09:39:25.968Z,99.90
2018-09-12T09:41:54.364Z,99.90
2018-09-12T09:44:22.679Z,99.90
2018-09-12T09:46:51.125Z,99.90
2018-09-12T09:49:19.477Z,99.90
2018-09-12T09:51:48.001Z,99.90
2018-09-12T09:54:16.776Z,99.90
2018-09-12T09:56:45.224Z,99.90
2018-09-12T09:59:13.596Z,99.90
2018-09-12T10:01:47.340Z,99.90
2018-09-12T10:04:21.203Z,99.90
2018-09-12T10:06:54.953Z,99.90
2018-09-12T10:09:28.738Z,99.90
2018-09-12T10:11:57.205Z,99.90
2018-09-12T10:14:25.528Z,99.90
2018-09-12T10:16:53.918Z,99.90
2018-09-12T10:19:22.241Z,99.90
2018-09-12T10:21:50.603Z,99.90
2018-09-12T10:24:19.084Z,99.90
2018-09-12T10:26:47.347Z,99.90
2018-09-12T10:29:16.008Z,99.90
2018-09-12T10:31:44.435Z,99.90
2018-09-12T10:34:12.752Z,99.90
2018-09-12T10:36:41.083Z,99.90
2018-09-12T10:39:11.461Z,99.90
2018-09-12T10:41:40.044Z,99.90
2018-09-12T10:44:08.477Z,99.90
2018-09-12T10:46:36.880Z,99.80
2018-09-12T10:49:05.734Z,98.80
2018-09-12T10:51:34.145Z,97.90
2018-09-12T10:54:02.496Z,99.90
2018-09-12T10:56:30.854Z,97.10
2018-09-12T10:58:59.476Z,96.30
2018-09-12T11:01:27.836Z,94.50
2018-09-12T11:03:56.246Z,93.40
2018-09-12T11:06:24.654Z,92.00
2018-09-12T11:08:52.955Z,91.60
2018-09-12T11:11:21.340Z,91.60
2018-09-12T11:13:49.851Z,89.60
2018-09-12T11:16:18.183Z,89.60
2018-09-12T11:18:46.550Z,89.30
2018-09-12T11:21:14.923Z,88.00
2018-09-12T11:23:43.257Z,88.50
2018-09-12T11:26:11.683Z,85.80
2018-09-12T11:28:40.562Z,84.30
2018-09-12T11:31:08.946Z,84.30
2018-09-12T11:33:37.293Z,83.80
2018-09-12T11:36:05.712Z,84.50
2018-09-12T11:38:34.056Z,82.10
2018-09-12T11:41:02.460Z,81.30
2018-09-12T11:43:30.833Z,81.40
2018-09-12T11:45:59.276Z,77.80
2018-09-12T11:48:27.624Z,77.50
2018-09-12T11:50:56.065Z,78.90
2018-09-12T11:53:24.526Z,77.20
2018-09-12T11:55:52.949Z,79.00
2018-09-12T11:58:21.321Z,76.90
2018-09-12T12:00:49.708Z,76.80
2018-09-12T12:03:18.085Z,78.10
2018-09-12T12:05:46.425Z,76.60
2018-09-12T12:08:14.820Z,73.60
2018-09-12T12:10:43.216Z,73.10
2018-09-12T12:13:11.664Z,74.20
2018-09-12T12:15:40.077Z,72.10
2018-09-12T12:18:08.460Z,73.50
2018-09-12T12:20:37.153Z,72.70
2018-09-12T12:23:05.705Z,71.90
2018-09-12T12:25:34.147Z,71.70
2018-09-12T12:28:02.638Z,74.00
2018-09-12T12:30:31.048Z,69.10
2018-09-12T12:32:59.452Z,69.60
2018-09-12T12:35:27.844Z,72.10
2018-09-12T12:37:56.326Z,71.00
2018-09-12T12:40:24.653Z,69.90
2018-09-12T12:42:53.086Z,68.50
2018-09-12T12:45:21.404Z,69.40
2018-09-12T12:47:49.738Z,70.70
2018-09-12T12:50:18.128Z,68.90
2018-09-12T12:52:46.608Z,70.70
2018-09-12T12:55:15.103Z,65.60
2018-09-12T12:57:43.464Z,66.60
2018-09-12T13:00:11.876Z,67.30
2018-09-12T13:02:40.212Z,68.50
2018-09-12T13:05:08.638Z,68.50
2018-09-12T13:07:37.954Z,69.40
2018-09-12T13:10:06.458Z,66.80
2018-09-12T13:12:34.849Z,65.70
2018-09-12T13:15:03.436Z,66.60
2018-09-12T13:17:32.732Z,65.60
2018-09-12T13:20:01.148Z,66.30
2018-09-12T13:22:29.553Z,64.80
2018-09-12T13:24:58.045Z,64.40
2018-09-12T13:27:26.455Z,65.00
2018-09-12T13:29:54.801Z,66.00
2018-09-12T13:32:23.147Z,67.20
2018-09-12T13:34:51.489Z,63.90
2018-09-12T13:37:19.965Z,63.90
2018-09-12T13:39:48.296Z,66.50
2018-09-12T13:42:16.664Z,66.60
2018-09-12T13:44:45.048Z,63.60
2018-09-12T13:47:13.368Z,65.70
2018-09-12T13:49:42.327Z,63.50
2018-09-12T13:52:10.859Z,63.00
2018-09-12T13:54:39.274Z,65.00
2018-09-12T13:57:07.720Z,65.30
2018-09-12T13:59:36.181Z,64.90
2018-09-12T14:02:04.728Z,63.70
2018-09-12T14:04:33.166Z,64.00
2018-09-12T14:07:01.560Z,64.80
2018-09-12T14:09:29.980Z,62.70
2018-09-12T14:11:58.409Z,61.80
2018-09-12T14:14:26.888Z,62.50
2018-09-12T14:16:55.263Z,61.90
2018-09-12T14:19:23.677Z,61.50
2018-09-12T14:21:52.108Z,60.20
2018-09-12T14:24:20.459Z,61.80
2018-09-12T14:26:48.938Z,61.70
2018-09-12T14:29:17.416Z,59.70
2018-09-12T14:31:45.764Z,60.20
2018-09-12T14:34:14.275Z,61.30
2018-09-12T14:36:42.694Z,60.20
2018-09-12T14:39:11.675Z,60.60
2018-09-12T14:41:40.160Z,61.90
2018-09-12T14:44:08.613Z,61.00
2018-09-12T14:46:37.075Z,61.80
2018-09-12T14:49:05.586Z,61.70
2018-09-12T14:51:33.967Z,62.30
2018-09-12T14:54:02.380Z,63.40
2018-09-12T14:56:30.804Z,65.50
2018-09-12T14:58:59.270Z,65.10
2018-09-12T15:01:27.698Z,64.50
2018-09-12T15:03:56.126Z,63.00
2018-09-12T15:06:24.593Z,64.60
2018-09-12T15:08:53.056Z,65.30
2018-09-12T15:11:21.571Z,64.30
2018-09-12T15:13:49.953Z,63.80
2018-09-12T15:16:18.327Z,64.00
2018-09-12T15:18:46.736Z,64.80
2018-09-12T15:21:15.429Z,65.50
2018-09-12T15:23:43.945Z,65.10
2018-09-12T15:26:12.751Z,65.60
2018-09-12T15:28:41.180Z,65.20
2018-09-12T15:31:09.925Z,65.70
2018-09-12T15:33:38.312Z,67.60
2018-09-12T15:36:07.305Z,67.80
2018-09-12T15:38:36.185Z,69.30
2018-09-12T15:41:04.643Z,69.60
2018-09-12T15:43:33.299Z,68.50
2018-09-12T15:46:01.736Z,69.30
2018-09-12T15:48:30.131Z,71.40
2018-09-12T15:50:58.581Z,69.80
2018-09-12T15:53:26.952Z,70.50
2018-09-12T15:55:55.496Z,70.10
2018-09-12T15:58:24.393Z,69.90
2018-09-12T16:00:52.814Z,68.20
2018-09-12T16:03:21.237Z,67.70
2018-09-12T16:05:49.655Z,69.40
2018-09-12T16:08:18.234Z,69.80
2018-09-12T16:10:46.620Z,69.10
2018-09-12T16:13:14.927Z,70.70
2018-09-12T16:15:43.556Z,71.80
2018-09-12T16:18:11.913Z,71.40
2018-09-12T16:20:40.259Z,71.70
2018-09-12T16:23:08.684Z,70.70
2018-09-12T16:25:37.000Z,72.20
2018-09-12T16:28:06.392Z,71.70
2018-09-12T16:30:34.760Z,72.40
2018-09-12T16:33:03.221Z,72.20
2018-09-12T16:35:31.535Z,72.60
2018-09-12T16:37:59.940Z,74.50
2018-09-12T16:40:28.388Z,74.60
2018-09-12T16:42:56.779Z,75.20
2018-09-12T16:45:25.166Z,76.10
2018-09-12T16:47:53.562Z,75.90
2018-09-12T16:50:21.976Z,78.30
2018-09-12T16:52:50.362Z,77.50
2018-09-12T16:55:19.160Z,77.20
2018-09-12T16:57:47.625Z,77.80
2018-09-12T17:00:16.001Z,76.90
2018-09-12T17:02:44.448Z,78.60
2018-09-12T17:05:13.081Z,80.00
2018-09-12T17:07:41.624Z,78.70
2018-09-12T17:10:09.962Z,78.50
2018-09-12T17:12:38.488Z,77.70
2018-09-12T17:15:08.534Z,79.10
2018-09-12T17:17:37.785Z,80.10
2018-09-12T17:20:06.596Z,81.00
2018-09-12T17:22:34.992Z,81.40
2018-09-12T17:25:03.419Z,83.10
2018-09-12T17:27:31.865Z,84.50
2018-09-12T17:30:00.264Z,86.20
2018-09-12T17:32:28.822Z,88.40
2018-09-12T17:34:57.313Z,90.50
2018-09-12T17:37:29.796Z,91.20
2018-09-12T17:39:59.484Z,92.00
2018-09-12T17:42:28.368Z,92.30
2018-09-12T17:45:00.156Z,92.30
2018-09-12T17:47:28.734Z,93.60
2018-09-12T17:49:57.172Z,94.90
2018-09-12T17:52:25.581Z,96.30
2018-09-12T17:54:53.947Z,97.70
2018-09-12T17:57:22.359Z,99.50
2018-09-12T17:59:50.841Z,99.90
2018-09-12T18:02:19.232Z,99.90
2018-09-12T18:04:47.665Z,99.90
2018-09-12T18:07:16.062Z,99.90
2018-09-12T18:09:45.081Z,99.90
2018-09-12T18:12:15.803Z,99.90
2018-09-12T18:14:45.003Z,99.90
2018-09-12T18:17:14.900Z,99.90
2018-09-12T18:19:44.633Z,99.90
2018-09-12T18:22:14.529Z,99.90
2018-09-12T18:24:43.907Z,99.90
2018-09-12T18:27:13.097Z,99.90
2018-09-12T18:29:41.964Z,99.90
2018-09-12T18:32:10.527Z,99.90
2018-09-12T18:34:38.945Z,99.90
2018-09-12T18:37:07.354Z,99.90
2018-09-12T18:39:35.778Z,99.90
2018-09-12T18:42:04.159Z,99.90
2018-09-12T18:44:32.580Z,99.90
2018-09-12T18:47:00.956Z,99.90
2018-09-12T18:49:29.405Z,99.90
2018-09-12T18:51:57.777Z,99.90
2018-09-12T18:54:26.165Z,99.90
2018-09-12T18:56:54.555Z,99.90
2018-09-12T18:59:30.993Z,99.90
2018-09-12T19:02:01.672Z,99.90
2018-09-12T19:04:32.189Z,99.90
2018-09-12T19:07:02.855Z,99.90
2018-09-12T19:09:32.793Z,99.90
2018-09-12T19:12:03.052Z,99.90
2018-09-12T19:14:32.853Z,99.90
2018-09-12T19:17:02.895Z,99.90
2018-09-12T19:19:33.779Z,99.90
2018-09-12T19:22:03.443Z,99.90
2018-09-12T19:24:33.460Z,99.90
2018-09-12T19:27:03.296Z,99.90
2018-09-12T19:29:33.176Z,99.90
2018-09-12T19:32:03.282Z,99.90
2018-09-12T19:34:33.154Z,99.90
2018-09-12T19:37:03.145Z,99.90
2018-09-12T19:39:33.374Z,99.90
2018-09-12T19:42:03.332Z,99.90
2018-09-12T19:44:31.792Z,99.90
2018-09-12T19:47:00.297Z,99.90
2018-09-12T19:49:28.646Z,99.90
2018-09-12T19:51:57.026Z,99.90
2018-09-12T19:54:25.480Z,99.90
2018-09-12T19:56:54.116Z,99.90
2018-09-12T19:59:22.860Z,99.90
2018-09-12T20:01:51.601Z,99.90
2018-09-12T20:04:20.779Z,99.90
2018-09-12T20:06:49.839Z,99.90
2018-09-12T20:09:18.236Z,99.90
2018-09-12T20:11:46.662Z,99.90
2018-09-12T20:14:15.278Z,99.90
2018-09-12T20:16:43.675Z,99.90
2018-09-12T20:19:12.533Z,99.90
2018-09-12T20:21:40.973Z,99.90
2018-09-12T20:24:09.544Z,99.90
2018-09-12T20:26:38.093Z,99.90
2018-09-12T20:29:06.583Z,99.90
2018-09-12T20:31:34.978Z,99.90
2018-09-12T20:34:03.545Z,99.90
2018-09-12T20:36:32.035Z,99.90
2018-09-12T20:39:00.443Z,99.90
2018-09-12T20:41:28.870Z,99.90
2018-09-12T20:43:57.272Z,99.90
2018-09-12T20:46:25.622Z,99.90
2018-09-12T20:48:53.981Z,99.90
2018-09-12T20:51:22.417Z,99.90
2018-09-12T20:53:50.757Z,99.90
2018-09-12T20:56:19.243Z,99.90
2018-09-12T20:58:47.658Z,99.90
2018-09-12T21:01:16.001Z,99.90
2018-09-12T21:03:44.365Z,99.90
2018-09-12T21:06:12.747Z,99.90
2018-09-12T21:08:41.196Z,99.90
2018-09-12T21:11:09.546Z,99.90
2018-09-12T21:13:37.888Z,99.90
2018-09-12T21:16:06.304Z,99.90
2018-09-12T21:18:34.675Z,99.90
2018-09-12T21:21:03.025Z,99.90
2018-09-12T21:23:31.500Z,99.90
2018-09-12T21:25:59.832Z,99.90
2018-09-12T21:28:28.205Z,99.90
2018-09-12T21:30:56.615Z,99.90
2018-09-12T21:33:25.009Z,99.90
2018-09-12T21:35:53.353Z,99.90
2018-09-12T21:38:21.766Z,99.90
2018-09-12T21:40:50.183Z,99.90
2018-09-12T21:43:18.538Z,99.90
2018-09-12T21:45:46.890Z,99.90
2018-09-12T21:48:15.277Z,99.90
2018-09-12T21:50:43.615Z,99.90
2018-09-12T21:53:11.983Z,99.90
2018-09-12T21:55:40.317Z,99.90
2018-09-12T21:58:08.698Z,99.90
2018-09-12T22:00:37.084Z,99.90
2018-09-12T22:03:05.432Z,99.90
2018-09-12T22:05:33.768Z,99.90
2018-09-12T22:08:02.214Z,99.90
2018-09-12T22:10:30.455Z,99.90
2018-09-12T22:12:58.856Z,99.90
2018-09-12T22:15:27.180Z,99.90
2018-09-12T22:17:55.533Z,99.90
2018-09-12T22:20:23.960Z,99.90
2018-09-12T22:22:52.361Z,99.90
2018-09-12T22:25:20.719Z,99.90
2018-09-12T22:27:49.100Z,99.90
2018-09-12T22:30:17.470Z,99.90
2018-09-12T22:32:45.791Z,99.90
2018-09-12T22:35:14.172Z,99.90
2018-09-12T22:37:42.523Z,99.90
2018-09-12T22:40:10.912Z,99.90
2018-09-12T22:42:39.241Z,99.90
2018-09-12T22:45:07.592Z,99.90
2018-09-12T22:47:36.158Z,99.90
2018-09-12T22:50:04.937Z,99.90
2018-09-12T22:52:33.285Z,99.90
2018-09-12T22:55:01.627Z,99.90
2018-09-12T22:57:30.005Z,99.90
2018-09-12T22:59:58.332Z,99.90
2018-09-12T23:02:26.650Z,99.90
2018-09-12T23:04:55.009Z,99.90
2018-09-12T23:07:23.425Z,99.90
2018-09-12T23:09:51.774Z,99.90
2018-09-12T23:12:20.116Z,99.90
2018-09-12T23:14:48.456Z,99.90
2018-09-12T23:17:16.764Z,99.90
2018-09-12T23:19:45.108Z,99.90
2018-09-12T23:22:13.450Z,99.90
2018-09-12T23:24:41.784Z,99.90
2018-09-12T23:27:10.124Z,99.90
2018-09-12T23:29:38.506Z,99.90
2018-09-12T23:32:06.876Z,99.90
2018-09-12T23:34:35.224Z,99.90
2018-09-12T23:37:03.577Z,99.90
2018-09-12T23:39:31.953Z,99.90
2018-09-12T23:42:00.354Z,99.90
2018-09-12T23:44:28.720Z,99.90
2018-09-12T23:46:57.088Z,99.90
2018-09-12T23:49:25.460Z,99.90
2018-09-12T23:51:53.860Z,99.90
2018-09-12T23:54:22.208Z,99.90
2018-09-12T23:56:50.524Z,99.90
2018-09-12T23:59:18.867Z,99.90
